M I D A S
Marine Information and Data Acquisition System
Tripno 1156 of the Zeeleeuw from 2006-08-30 06:22:36 to 2006-08-30 15:14:32
Back to CruiseResearch ActivitiesStationsMapUnderway DataData graphs

EquipmentUnitsComment
TimeDGPSUTC
LatitudeDGPSDM.mWGS84
LongitudeDGPSDM.mWGS84
TemperatureSBE03/SBE38deg celciusITS90
ConductivitySBE21S/mITS90
SalinitySBE21 Practical Salinity Units
ChlorophylAChelsea fluorimeterg/lCalibrated in Aceton
Missing or incorrect values are displayed as -999
Sea surface data collected by the RV Zeeleeuw from 2006-08-30 06:22:43 to 2006-08-30 15:25:18
Time Latitude Longitude Temperature Conductivity Salinity ChlorophylA
2006-08-30 06:23:49 51°13.61 2°56.04 21.6688 0.573701 3.346567 0.634546
2006-08-30 06:24:49 51°13.633 2°55.959 21.6737 0.573701 3.346567 0.600836
2006-08-30 06:25:49 51°13.664 2°55.88 21.6628 0.573701 3.34662 0.600836
2006-08-30 06:26:50 51°13.689 2°55.804 21.6602 0.573701 3.34662 0.634546
2006-08-30 06:27:49 51°13.702 2°55.741 21.7004 0.573701 3.346883 0.634546
2006-08-30 06:28:48 51°13.707 2°55.738 21.7126 0.573701 3.347252 0.668255
2006-08-30 06:29:48 51°13.704 2°55.742 21.7014 0.574745 3.353803 0.600836
2006-08-30 06:30:48 51°13.715 2°55.737 19.1519 0.690809 4.105805 2.421144
2006-08-30 06:31:48 51°13.768 2°55.686 18.6086 3.866925 28.113243 1.241315
2006-08-30 06:32:48 51°13.854 2°55.617 18.4875 3.745444 27.397978 1.207606
2006-08-30 06:33:48 51°13.962 2°55.541 18.2946 3.760511 27.593049 1.207606
2006-08-30 06:34:48 51°14.076 2°55.463 18.1917 3.677494 27.050931 1.207606
2006-08-30 06:35:48 51°14.191 2°55.36 18.1446 3.718266 27.437171 1.207606
2006-08-30 06:36:48 51°14.296 2°55.203 18.131 3.737863 27.635025 1.241315
2006-08-30 06:37:48 51°14.397 2°55.022 18.2097 3.782431 28.010488 1.140187
2006-08-30 06:38:47 51°14.526 2°54.874 18.1998 3.933744 29.210058 1.207606
2006-08-30 06:39:48 51°14.685 2°54.752 18.2134 4.115018 30.718263 1.241315
2006-08-30 06:40:48 51°14.856 2°54.633 18.2466 4.249203 31.818755 1.275024
2006-08-30 06:41:49 51°15.032 2°54.509 18.2901 4.36253 32.735987 1.241315
2006-08-30 06:42:48 51°15.195 2°54.392 18.3025 4.43264 33.300874 1.140187
2006-08-30 06:43:48 51°15.362 2°54.268 18.2972 4.471967 33.62101 1.106477
2006-08-30 06:44:49 51°15.533 2°54.139 18.2996 4.492949 33.805923 1.072768
2006-08-30 06:45:48 51°15.697 2°54.013 18.3015 4.50518 33.907775 1.039059
2006-08-30 06:46:48 51°15.868 2°53.893 18.31 4.492738 33.799995 1.039059
2006-08-30 06:47:48 51°16.041 2°53.778 18.3152 4.479875 33.683419 1.106477
2006-08-30 06:48:48 51°16.217 2°53.679 18.321 4.469647 33.595012 1.106477
2006-08-30 06:49:49 51°16.4 2°53.586 18.3289 4.46427 33.544493 1.106477
2006-08-30 06:50:48 51°16.569 2°53.499 18.3306 4.45689 33.478922 1.072768
2006-08-30 06:51:48 51°16.744 2°53.431 18.3314 4.4668 33.558711 1.140187
2006-08-30 06:52:48 51°16.924 2°53.369 18.3324 4.470174 33.586491 1.072768
2006-08-30 06:53:48 51°17.113 2°53.318 18.3402 4.481034 33.679005 1.039059
2006-08-30 06:54:47 51°17.301 2°53.284 18.3682 4.489575 33.740215 1.005349
2006-08-30 06:55:49 51°17.499 2°53.287 18.3887 4.507077 33.867322 0.97164
2006-08-30 06:56:48 51°17.682 2°53.349 18.3887 4.522365 33.982291 0.93793
2006-08-30 06:57:48 51°17.868 2°53.413 18.3896 4.529746 34.047383 0.870512
2006-08-30 06:58:48 51°18.058 2°53.467 18.3949 4.537865 34.108567 0.870512
2006-08-30 06:59:47 51°18.246 2°53.519 18.4021 4.534386 34.077488 0.904221
2006-08-30 07:00:48 51°18.434 2°53.542 18.4024 4.5211 33.960945 0.870512
2006-08-30 07:01:48 51°18.602 2°53.454 18.4015 4.50423 33.817912 0.803093
2006-08-30 07:02:48 51°18.773 2°53.323 18.4088 4.499063 33.771536 0.803093
2006-08-30 07:03:49 51°18.939 2°53.205 18.4173 4.498747 33.765925 0.803093
2006-08-30 07:04:48 51°19.022 2°53.146 18.4259 4.507393 33.832071 0.769383
2006-08-30 07:05:48 51°19.062 2°53.13 18.4257 4.511715 33.862479 0.735674
2006-08-30 07:06:49 51°19.096 2°53.108 18.4334 4.514457 33.881369 0.735674
2006-08-30 07:07:49 51°19.124 2°53.071 18.4388 4.516144 33.890214 0.735674
2006-08-30 07:08:48 51°19.134 2°53.071 18.4412 4.515405 33.872172 0.769383
2006-08-30 07:09:47 51°19.132 2°53.089 18.4399 4.515405 33.869805 0.769383
2006-08-30 07:10:48 51°19.125 2°53.101 18.4364 4.515405 33.870396 0.735674
2006-08-30 07:11:48 51°19.119 2°53.115 18.4418 4.514984 33.87218 0.735674
2006-08-30 07:12:48 51°19.114 2°53.129 18.4405 4.517409 33.890774 0.769383
2006-08-30 07:13:49 51°19.11 2°53.142 18.4448 4.518569 33.895779 0.769383
2006-08-30 07:14:48 51°19.104 2°53.153 18.4247 4.516987 33.892562 0.769383
2006-08-30 07:15:48 51°19.097 2°53.164 18.4227 4.511926 33.853005 0.769383
2006-08-30 07:16:48 51°19.089 2°53.174 18.4192 4.509501 33.837366 0.735674
2006-08-30 07:17:48 51°19.082 2°53.183 18.4222 4.510028 33.844161 0.769383
2006-08-30 07:18:48 51°19.072 2°53.19 18.4192 4.511083 33.851244 0.769383
2006-08-30 07:19:48 51°19.072 2°53.209 18.4165 4.510977 33.851542 0.769383
2006-08-30 07:20:49 51°19.118 2°53.255 18.4185 4.506654 33.819955 0.803093
2006-08-30 07:21:48 51°19.188 2°53.322 18.4345 4.501488 33.766517 0.803093
2006-08-30 07:22:48 51°19.258 2°53.389 18.4372 4.499062 33.734953 0.803093
2006-08-30 07:23:48 51°19.293 2°53.432 18.439 4.495688 33.707223 0.803093
2006-08-30 07:24:48 51°19.292 2°53.447 18.4388 4.496954 33.71902 0.803093
2006-08-30 07:25:48 51°19.285 2°53.462 18.4429 4.495478 33.703098 0.803093
2006-08-30 07:26:48 51°19.278 2°53.474 18.3978 4.493896 33.691003 0.769383
2006-08-30 07:27:49 51°19.27 2°53.489 18.4003 4.445607 33.322807 0.803093
2006-08-30 07:28:48 51°19.266 2°53.503 18.425 4.472704 33.53549 0.803093
2006-08-30 07:29:48 51°19.259 2°53.513 18.4215 4.487675 33.649974 0.769383
2006-08-30 07:30:48 51°19.254 2°53.523 18.4264 4.486094 33.640817 0.769383
2006-08-30 07:31:48 51°19.247 2°53.535 18.4287 4.484512 33.621079 0.803093
2006-08-30 07:32:48 51°19.239 2°53.544 18.4301 4.484512 33.619904 0.803093
2006-08-30 07:33:48 51°19.23 2°53.551 18.4318 4.482614 33.602806 0.769383
2006-08-30 07:34:48 51°19.221 2°53.56 18.4242 4.482403 33.601624 0.769383
2006-08-30 07:35:48 51°19.22 2°53.575 18.4445 4.479557 33.582435 0.803093
2006-08-30 07:36:48 51°19.26 2°53.633 18.4391 4.47808 33.558322 0.836802
2006-08-30 07:37:48 51°19.358 2°53.75 18.4085 4.45984 33.411234 0.870512
2006-08-30 07:38:47 51°19.462 2°53.893 18.4107 4.421674 33.107728 0.904221
2006-08-30 07:39:48 51°19.552 2°54.031 18.4155 4.425574 33.137503 0.870512
2006-08-30 07:40:48 51°19.608 2°54.122 18.4171 4.419987 33.087819 0.904221
2006-08-30 07:41:49 51°19.616 2°54.153 18.4155 4.409865 33.001365 0.904221
2006-08-30 07:42:49 51°19.605 2°54.157 18.4113 4.406913 32.981271 0.904221
2006-08-30 07:43:48 51°19.594 2°54.162 18.4071 4.406281 32.97713 0.870512
2006-08-30 07:44:48 51°19.583 2°54.169 18.4061 4.408178 32.996472 0.870512
2006-08-30 07:45:48 51°19.573 2°54.176 18.4026 4.411552 33.021829 0.870512
2006-08-30 07:46:48 51°19.564 2°54.183 18.4038 4.413345 33.04203 0.870512
2006-08-30 07:47:48 51°19.553 2°54.194 18.4022 4.413028 33.038226 0.836802
2006-08-30 07:48:48 51°19.546 2°54.201 18.4112 4.415769 33.064068 0.836802
2006-08-30 07:49:48 51°19.537 2°54.208 18.4163 4.420619 33.095428 0.836802
2006-08-30 07:50:48 51°19.528 2°54.215 18.4181 4.421463 33.100177 0.870512
2006-08-30 07:51:48 51°19.52 2°54.221 18.4176 4.421041 33.093755 0.836802
2006-08-30 07:52:48 51°19.51 2°54.227 18.4167 4.420935 33.09692 0.836802
2006-08-30 07:53:48 51°19.501 2°54.234 18.4206 4.421568 33.100482 0.836802
2006-08-30 07:54:48 51°19.492 2°54.237 18.4172 4.422833 33.107604 0.870512
2006-08-30 07:55:48 51°19.538 2°54.294 18.4299 4.423677 33.115823 0.904221
2006-08-30 07:56:49 51°19.643 2°54.419 18.4175 4.419881 33.076534 0.93793
2006-08-30 07:57:48 51°19.741 2°54.569 18.4099 4.400376 32.921396 0.97164
2006-08-30 07:58:48 51°19.834 2°54.713 18.3996 4.377499 32.739243 0.93793
2006-08-30 07:59:49 51°19.886 2°54.79 18.399 4.365902 32.648011 0.97164
2006-08-30 08:00:48 51°19.906 2°54.825 18.3718 4.35441 32.555396 0.93793
2006-08-30 08:01:49 51°19.923 2°54.852 18.3713 4.329952 32.369794 0.904221
2006-08-30 08:02:48 51°19.92 2°54.859 18.3775 4.318672 32.27503 0.93793
2006-08-30 08:03:48 51°19.909 2°54.869 18.3723 4.320464 32.286606 0.97164
2006-08-30 08:04:48 51°19.896 2°54.873 18.3712 4.322045 32.300373 0.93793
2006-08-30 08:05:48 51°19.882 2°54.874 18.3722 4.324786 32.32552 0.93793
2006-08-30 08:06:49 51°19.868 2°54.874 18.369 4.329741 32.367467 0.93793
2006-08-30 08:07:49 51°19.854 2°54.878 18.3755 4.330901 32.378285 0.904221
2006-08-30 08:08:49 51°19.839 2°54.879 18.3764 4.334485 32.402562 0.870512
2006-08-30 08:09:49 51°19.824 2°54.88 18.3745 4.333958 32.395894 0.93793
2006-08-30 08:10:49 51°19.809 2°54.883 18.3633 4.334169 32.402753 0.93793
2006-08-30 08:11:49 51°19.797 2°54.884 18.3644 4.331428 32.388352 0.904221
2006-08-30 08:12:48 51°19.783 2°54.887 18.3738 4.332799 32.396403 0.904221
2006-08-30 08:13:48 51°19.792 2°54.905 18.3825 4.336172 32.417785 0.904221
2006-08-30 08:14:48 51°19.877 2°54.998 18.3813 4.341865 32.459104 0.97164
2006-08-30 08:15:48 51°19.98 2°55.127 18.374 4.332798 32.385642 0.97164
2006-08-30 08:16:48 51°20.088 2°55.241 18.3745 4.319726 32.282702 0.97164
2006-08-30 08:17:48 51°20.199 2°55.324 18.3869 4.310449 32.201884 0.97164
2006-08-30 08:18:48 51°20.305 2°55.408 18.4026 4.309816 32.183666 0.97164
2006-08-30 08:19:48 51°20.35 2°55.441 18.4106 4.30465 32.131038 0.97164
2006-08-30 08:20:49 51°20.338 2°55.441 18.4121 4.304756 32.125183 1.005349
2006-08-30 08:21:48 51°20.325 2°55.442 18.4133 4.304018 32.119593 0.97164
2006-08-30 08:22:48 51°20.31 2°55.441 18.4098 4.304861 32.127184 0.97164
2006-08-30 08:23:48 51°20.297 2°55.439 18.4081 4.304018 32.121276 0.93793
2006-08-30 08:24:48 51°20.283 2°55.438 18.4055 4.304756 32.130794 0.93793
2006-08-30 08:25:48 51°20.272 2°55.438 18.4017 4.305915 32.142146 0.93793
2006-08-30 08:26:48 51°20.26 2°55.44 18.3985 4.304123 32.128888 0.97164
2006-08-30 08:27:48 51°20.247 2°55.441 18.4014 4.307286 32.154697 0.97164
2006-08-30 08:28:48 51°20.234 2°55.442 18.3932 4.306021 32.14471 0.93793
2006-08-30 08:29:48 51°20.275 2°55.487 18.4012 4.306759 32.152548 0.97164
2006-08-30 08:30:49 51°20.364 2°55.582 18.4032 4.305916 32.145515 0.97164
2006-08-30 08:31:49 51°20.464 2°55.696 18.4042 4.306864 32.148934 0.97164
2006-08-30 08:32:48 51°20.572 2°55.832 18.4075 4.308129 32.157797 1.039059
2006-08-30 08:33:48 51°20.675 2°55.94 18.42 4.305388 32.132139 1.005349
2006-08-30 08:34:49 51°20.748 2°56.018 18.4246 4.306653 32.134829 1.005349
2006-08-30 08:35:48 51°20.789 2°56.055 18.4316 4.30834 32.142154 1.005349
2006-08-30 08:36:48 51°20.799 2°56.065 18.4327 4.310237 32.156845 1.005349
2006-08-30 08:37:48 51°20.794 2°56.068 18.4647 4.310132 32.147551 1.005349
2006-08-30 08:38:49 51°20.784 2°56.069 18.4305 4.312451 32.156215 0.904221
2006-08-30 08:39:48 51°20.77 2°56.066 18.4294 4.311186 32.166436 0.93793
2006-08-30 08:40:49 51°20.754 2°56.06 18.4315 4.31087 32.162117 0.93793
2006-08-30 08:41:49 51°20.741 2°56.055 18.4293 4.311292 32.162824 0.93793
2006-08-30 08:42:49 51°20.73 2°56.053 18.428 4.311924 32.168657 0.904221
2006-08-30 08:43:48 51°20.718 2°56.052 18.4239 4.312662 32.178176 0.97164
2006-08-30 08:44:49 51°20.704 2°56.052 18.4237 4.313189 32.185378 0.97164
2006-08-30 08:45:48 51°20.689 2°56.049 18.4213 4.314138 32.195535 0.93793
2006-08-30 08:46:48 51°20.672 2°56.045 18.4181 4.31456 32.200175 0.93793
2006-08-30 08:47:49 51°20.656 2°56.041 18.4211 4.314982 32.205377 0.93793
2006-08-30 08:48:48 51°20.643 2°56.038 18.4181 4.31593 32.208227 0.904221
2006-08-30 08:49:49 51°20.63 2°56.036 18.4147 4.316247 32.215925 0.904221
2006-08-30 08:50:48 51°20.617 2°56.03 18.41 4.319409 32.244548 0.93793
2006-08-30 08:51:48 51°20.602 2°56.026 18.413 4.318777 32.242088 0.97164
2006-08-30 08:52:49 51°20.585 2°56.023 18.4095 4.318777 32.239273 0.904221
2006-08-30 08:53:49 51°20.612 2°56.065 18.4136 4.319198 32.245042 0.97164
2006-08-30 08:54:48 51°20.672 2°56.158 18.4078 4.322256 32.269414 0.97164
2006-08-30 08:55:49 51°20.745 2°56.275 18.4029 4.319936 32.254576 0.97164
2006-08-30 08:56:49 51°20.85 2°56.386 18.3992 4.319093 32.252611 1.005349
2006-08-30 08:57:48 51°20.95 2°56.516 18.3994 4.31456 32.214798 1.039059
2006-08-30 08:58:48 51°21.022 2°56.615 18.4149 4.306548 32.146297 1.072768
2006-08-30 08:59:48 51°21.076 2°56.67 18.4073 4.307918 32.146495 1.072768
2006-08-30 09:00:48 51°21.119 2°56.738 18.4035 4.309605 32.167294 1.072768
2006-08-30 09:01:48 51°21.143 2°56.766 18.4041 4.307391 32.14996 1.039059
2006-08-30 09:02:49 51°21.151 2°56.77 18.4037 4.303069 32.116732 1.039059
2006-08-30 09:03:49 51°21.15 2°56.768 18.4505 4.302647 32.109291 1.039059
2006-08-30 09:04:49 51°21.142 2°56.765 18.4156 4.302858 32.088077 1.005349
2006-08-30 09:05:49 51°21.131 2°56.759 18.42 4.301698 32.093537 0.97164
2006-08-30 09:06:48 51°21.119 2°56.753 18.4196 4.300855 32.084269 1.039059
2006-08-30 09:07:49 51°21.105 2°56.747 18.4091 4.299274 32.075013 1.005349
2006-08-30 09:08:48 51°21.091 2°56.741 18.4117 4.297903 32.068633 1.005349
2006-08-30 09:09:49 51°21.105 2°56.765 18.4034 4.298114 32.06871 1.005349
2006-08-30 09:10:49 51°21.163 2°56.85 18.4051 4.300012 32.091808 1.072768
2006-08-30 09:11:48 51°21.221 2°56.968 18.4071 4.298747 32.076221 1.072768
2006-08-30 09:12:49 51°21.286 2°57.123 18.411 4.296638 32.058091 1.106477
2006-08-30 09:13:49 51°21.359 2°57.279 18.4214 4.293581 32.028702 1.106477
2006-08-30 09:14:49 51°21.411 2°57.379 18.4355 4.291262 32.004353 1.106477
2006-08-30 09:15:48 51°21.443 2°57.442 18.4395 4.291894 31.996776 1.005349
2006-08-30 09:16:48 51°21.455 2°57.469 18.433 4.292105 31.99574 1.072768
2006-08-30 09:17:49 51°21.459 2°57.474 18.4317 4.290102 31.984646 1.039059
2006-08-30 09:18:49 51°21.454 2°57.477 18.4836 4.29084 31.987999 1.005349
2006-08-30 09:19:49 51°21.446 2°57.476 18.4451 4.292526 31.974153 1.039059
2006-08-30 09:20:48 51°21.435 2°57.476 18.4321 4.288626 31.969011 0.93793
2006-08-30 09:21:49 51°21.421 2°57.473 18.4384 4.287994 31.963188 0.97164
2006-08-30 09:22:49 51°21.405 2°57.47 18.4443 4.287256 31.954258 1.005349
2006-08-30 09:23:49 51°21.388 2°57.466 18.4462 4.287677 31.954981 1.039059
2006-08-30 09:24:49 51°21.371 2°57.458 18.4373 4.285885 31.938395 1.039059
2006-08-30 09:25:49 51°21.356 2°57.453 18.4269 4.284304 31.933034 1.072768
2006-08-30 09:26:49 51°21.342 2°57.447 18.4388 4.281352 31.914592 1.005349
2006-08-30 09:27:49 51°21.328 2°57.442 18.43 4.283144 31.922269 1.005349
2006-08-30 09:28:48 51°21.316 2°57.437 18.4331 4.281985 31.917629 1.039059
2006-08-30 09:29:49 51°21.301 2°57.433 18.4263 4.280087 31.902949 1.072768
2006-08-30 09:30:49 51°21.286 2°57.426 18.4175 4.278295 31.890815 1.106477
2006-08-30 09:31:48 51°21.271 2°57.42 18.4204 4.276398 31.880029 1.072768
2006-08-30 09:32:49 51°21.256 2°57.414 18.4211 4.27566 31.871105 1.039059
2006-08-30 09:33:48 51°21.24 2°57.408 18.4183 4.274079 31.860725 1.072768
2006-08-30 09:34:49 51°21.223 2°57.404 18.4173 4.27313 31.855052 1.039059
2006-08-30 09:35:49 51°21.209 2°57.4 18.4252 4.272286 31.844697 1.039059
2006-08-30 09:36:49 51°21.25 2°57.452 18.424 4.271338 31.832357 1.072768
2006-08-30 09:37:49 51°21.323 2°57.564 18.4304 4.267332 31.801801 1.072768
2006-08-30 09:38:49 51°21.408 2°57.722 18.4288 4.26069 31.741012 1.106477
2006-08-30 09:39:49 51°21.507 2°57.884 18.4451 4.259109 31.730629 1.106477
2006-08-30 09:40:49 51°21.616 2°58.033 18.4828 4.239185 31.546826 1.173896
2006-08-30 09:41:49 51°21.725 2°58.134 18.4927 4.229171 31.441741 1.207606
2006-08-30 09:42:49 51°21.772 2°58.159 18.4684 4.22896 31.43397 1.173896
2006-08-30 09:43:49 51°21.777 2°58.162 18.4658 4.231701 31.474246 1.140187
2006-08-30 09:44:49 51°21.77 2°58.163 18.4787 4.233493 31.478151 1.140187
2006-08-30 09:45:49 51°21.759 2°58.162 18.483 4.230963 31.455514 1.072768
2006-08-30 09:46:48 51°21.746 2°58.16 18.4769 4.229487 31.443818 1.140187
2006-08-30 09:47:49 51°21.733 2°58.158 18.4746 4.227379 31.429611 1.173896
2006-08-30 09:48:49 51°21.718 2°58.152 18.4753 4.225481 31.413869 1.140187
2006-08-30 09:49:49 51°21.703 2°58.146 18.4878 4.226641 31.420205 1.140187
2006-08-30 09:50:49 51°21.689 2°58.139 18.4958 4.2278 31.422163 1.106477
2006-08-30 09:51:49 51°21.674 2°58.134 18.5097 4.227273 31.411228 1.106477
2006-08-30 09:52:49 51°21.658 2°58.128 18.5163 4.227378 31.403902 1.106477
2006-08-30 09:53:48 51°21.641 2°58.123 18.5149 4.227589 31.400185 1.106477
2006-08-30 09:54:49 51°21.625 2°58.117 18.4988 4.227062 31.402373 1.173896
2006-08-30 09:55:49 51°21.61 2°58.108 18.4905 4.226641 31.40653 1.173896
2006-08-30 09:56:49 51°21.594 2°58.103 18.4971 4.226746 31.411232 1.173896
2006-08-30 09:57:48 51°21.578 2°58.095 18.5071 4.2278 31.414505 1.140187
2006-08-30 09:58:49 51°21.559 2°58.089 18.5155 4.229381 31.419959 1.072768
2006-08-30 09:59:49 51°21.543 2°58.083 18.515 4.231068 31.428473 1.072768
2006-08-30 10:00:49 51°21.527 2°58.076 18.5177 4.232438 31.441474 1.072768
2006-08-30 10:01:48 51°21.51 2°58.07 18.5178 4.2317 31.432622 1.039059
2006-08-30 10:02:47 51°21.495 2°58.065 18.5078 4.232965 31.442561 1.039059
2006-08-30 10:03:49 51°21.476 2°58.059 18.4952 4.232333 31.44662 1.140187
2006-08-30 10:04:49 51°21.464 2°58.059 18.4944 4.233071 31.464239 1.207606
2006-08-30 10:05:48 51°21.471 2°58.073 18.4935 4.232965 31.460625 1.173896
2006-08-30 10:06:49 51°21.487 2°58.1 18.4979 4.231806 31.451008 1.173896
2006-08-30 10:07:49 51°21.511 2°58.14 18.506 4.232017 31.448376 1.207606
2006-08-30 10:08:49 51°21.541 2°58.185 18.5149 4.23286 31.449895 1.173896
2006-08-30 10:09:49 51°21.569 2°58.231 18.519 4.232227 31.439179 1.207606
2006-08-30 10:10:49 51°21.599 2°58.281 18.5194 4.231595 31.430655 1.207606
2006-08-30 10:11:49 51°21.627 2°58.33 18.5192 4.231384 31.428361 1.241315
2006-08-30 10:12:49 51°21.656 2°58.375 18.5211 4.231805 31.431309 1.207606
2006-08-30 10:13:49 51°21.686 2°58.424 18.5233 4.232543 31.439066 1.207606
2006-08-30 10:14:47 51°21.714 2°58.468 18.5284 4.233703 31.444849 1.173896
2006-08-30 10:15:48 51°21.747 2°58.511 18.5251 4.23307 31.437419 1.173896
2006-08-30 10:16:49 51°21.778 2°58.553 18.5278 4.230646 31.418418 1.173896
2006-08-30 10:17:48 51°21.808 2°58.596 18.5273 4.232754 31.434251 1.140187
2006-08-30 10:18:49 51°21.842 2°58.643 18.5202 4.231911 31.427809 1.173896
2006-08-30 10:19:49 51°21.874 2°58.69 18.5125 4.232649 31.437205 1.140187
2006-08-30 10:20:49 51°21.907 2°58.738 18.5016 4.232543 31.442348 1.140187
2006-08-30 10:21:49 51°21.939 2°58.789 18.4893 4.233281 31.458319 1.140187
2006-08-30 10:22:49 51°21.973 2°58.836 18.4841 4.235601 31.485226 1.140187
2006-08-30 10:23:49 51°22.009 2°58.881 18.4842 4.23655 31.497485 1.106477
2006-08-30 10:24:49 51°22.045 2°58.925 18.4795 4.243085 31.551173 1.106477
2006-08-30 10:25:49 51°22.069 2°58.947 18.4833 4.249832 31.608275 1.072768
2006-08-30 10:26:47 51°22.07 2°58.951 18.4907 4.24941 31.603673 1.072768
2006-08-30 10:27:49 51°22.062 2°58.951 18.5417 4.249199 31.592019 1.039059
2006-08-30 10:28:49 51°22.049 2°58.952 18.51 4.253521 31.597088 1.039059
2006-08-30 10:29:49 51°22.031 2°58.953 18.499 4.250464 31.593717 1.039059
2006-08-30 10:30:49 51°22.011 2°58.951 18.5035 4.248883 31.587745 1.005349
2006-08-30 10:31:49 51°21.99 2°58.945 18.4972 4.249937 31.590994 1.005349
2006-08-30 10:32:49 51°21.968 2°58.942 18.4999 4.248988 31.58972 1.039059
2006-08-30 10:33:49 51°21.947 2°58.938 18.4983 4.249304 31.589594 1.005349
2006-08-30 10:34:49 51°21.94 2°58.944 18.5162 4.248988 31.58862 1.039059
2006-08-30 10:35:49 51°21.968 2°58.927 18.4977 4.249726 31.589244 1.106477
2006-08-30 10:36:49 51°21.991 2°58.92 18.4942 4.246985 31.572 1.106477
2006-08-30 10:37:49 51°22.01 2°58.929 18.498 4.244772 31.555829 1.106477
2006-08-30 10:38:49 51°22.023 2°58.937 18.4988 4.24319 31.540513 1.140187
2006-08-30 10:39:49 51°22.04 2°58.943 18.5039 4.24298 31.536568 1.140187
2006-08-30 10:40:49 51°22.061 2°58.947 18.5013 4.243401 31.536223 1.140187
2006-08-30 10:41:49 51°22.06 2°58.949 18.5091 4.24435 31.545191 1.106477
2006-08-30 10:42:48 51°22.051 2°58.951 18.5406 4.244982 31.542752 1.106477
2006-08-30 10:43:49 51°22.036 2°58.952 18.5066 4.249093 31.558183 1.072768
2006-08-30 10:44:49 51°22.018 2°58.95 18.5044 4.245509 31.551516 1.039059
2006-08-30 10:45:49 51°21.998 2°58.947 18.4976 4.244982 31.550438 1.072768
2006-08-30 10:46:49 51°21.978 2°58.941 18.5089 4.242874 31.536242 1.106477
2006-08-30 10:47:47 51°21.955 2°58.938 18.5156 4.244982 31.54385 1.039059
2006-08-30 10:48:49 51°21.932 2°58.93 18.5122 4.244034 31.534884 1.106477
2006-08-30 10:49:49 51°21.91 2°58.923 18.518 4.242452 31.522868 1.106477
2006-08-30 10:50:49 51°21.89 2°58.917 18.5283 4.241609 31.510391 1.140187
2006-08-30 10:51:49 51°21.869 2°58.915 18.5365 4.240449 31.493107 1.106477
2006-08-30 10:52:49 51°21.849 2°58.912 18.5395 4.239817 31.48239 1.140187
2006-08-30 10:53:49 51°21.829 2°58.909 18.5402 4.239606 31.479548 1.140187
2006-08-30 10:54:49 51°21.81 2°58.903 18.5402 4.238657 31.470592 1.106477
2006-08-30 10:55:49 51°21.791 2°58.898 18.5423 4.238341 31.466877 1.140187
2006-08-30 10:56:48 51°21.772 2°58.892 18.554 4.238446 31.466109 1.140187
2006-08-30 10:57:48 51°21.754 2°58.888 18.5445 4.238551 31.459873 1.140187
2006-08-30 10:58:48 51°21.769 2°58.908 18.5429 4.238024 31.460975 1.173896
2006-08-30 10:59:48 51°21.836 2°58.965 18.5412 4.23697 31.454429 1.207606
2006-08-30 11:00:49 51°21.929 2°59.092 18.5424 4.238235 31.466003 1.207606
2006-08-30 11:01:49 51°22.039 2°59.223 18.5539 4.243295 31.508481 1.140187
2006-08-30 11:02:49 51°22.16 2°59.342 18.5551 4.24846 31.541424 1.173896
2006-08-30 11:03:49 51°22.282 2°59.461 18.5554 4.248566 31.541749 1.173896
2006-08-30 11:04:49 51°22.362 2°59.538 18.5569 4.250042 31.552334 1.207606
2006-08-30 11:05:49 51°22.379 2°59.547 18.5519 4.250569 31.555605 1.207606
2006-08-30 11:06:49 51°22.371 2°59.541 18.5982 4.250147 31.555401 1.140187
2006-08-30 11:07:49 51°22.356 2°59.537 18.568 4.253731 31.558232 1.140187
2006-08-30 11:08:49 51°22.332 2°59.531 18.5648 4.251834 31.559506 1.173896
2006-08-30 11:09:49 51°22.309 2°59.522 18.5572 4.250779 31.556803 1.173896
2006-08-30 11:10:49 51°22.284 2°59.513 18.5551 4.250569 31.556701 1.140187
2006-08-30 11:11:48 51°22.262 2°59.506 18.5494 4.250358 31.556051 1.207606
2006-08-30 11:12:49 51°22.24 2°59.497 18.546 4.249304 31.554993 1.173896
2006-08-30 11:13:49 51°22.218 2°59.489 18.5576 4.249725 31.555745 1.140187
2006-08-30 11:14:49 51°22.197 2°59.482 18.5618 4.249725 31.548617 1.106477
2006-08-30 11:15:49 51°22.174 2°59.477 18.5492 4.250463 31.553634 1.140187
2006-08-30 11:16:49 51°22.152 2°59.471 18.5456 4.249725 31.556843 1.140187
2006-08-30 11:17:49 51°22.129 2°59.465 18.5468 4.250147 31.561983 1.173896
2006-08-30 11:18:49 51°22.106 2°59.46 18.5472 4.250253 31.562309 1.140187
2006-08-30 11:19:49 51°22.084 2°59.455 18.5522 4.250358 31.560988 1.140187
2006-08-30 11:20:49 51°22.062 2°59.451 18.5587 4.252361 31.574296 1.106477
2006-08-30 11:21:49 51°22.041 2°59.448 18.5609 4.251728 31.565762 1.072768
2006-08-30 11:22:49 51°22.04 2°59.453 18.5657 4.252993 31.574051 1.106477
2006-08-30 11:23:49 51°22.089 2°59.496 18.5698 4.253731 31.575776 1.241315
2006-08-30 11:24:49 51°22.189 2°59.621 18.5596 4.254785 31.582316 1.241315
2006-08-30 11:25:48 51°22.298 2°59.767 18.5607 4.255523 31.59337 1.241315
2006-08-30 11:26:49 51°22.413 2°59.915 18.5953 4.254469 31.584634 1.241315
2006-08-30 11:27:49 51°22.526 3°0.061 18.6226 4.260161 31.602162 1.207606
2006-08-30 11:28:49 51°22.624 3°0.185 18.6294 4.261215 31.592797 1.241315
2006-08-30 11:29:49 51°22.701 3°0.282 18.6346 4.260477 31.585046 1.275024
2006-08-30 11:30:48 51°22.741 3°0.328 18.646 4.261004 31.583931 1.241315
2006-08-30 11:31:49 51°22.749 3°0.335 18.6374 4.261531 31.583363 1.241315
2006-08-30 11:32:48 51°22.742 3°0.33 18.6919 4.263534 31.602126 1.241315
2006-08-30 11:33:49 51°22.726 3°0.324 18.643 4.265431 31.589348 1.173896
2006-08-30 11:34:49 51°22.709 3°0.317 18.6545 4.261847 31.581599 1.140187
2006-08-30 11:35:49 51°22.689 3°0.31 18.6524 4.263006 31.587359 1.140187
2006-08-30 11:36:49 51°22.669 3°0.301 18.6525 4.263639 31.593138 1.140187
2006-08-30 11:37:49 51°22.648 3°0.293 18.6458 4.261742 31.579632 1.140187
2006-08-30 11:38:49 51°22.629 3°0.281 18.6471 4.261425 31.578659 1.140187
2006-08-30 11:39:49 51°22.609 3°0.273 18.6382 4.26132 31.576692 1.173896
2006-08-30 11:40:49 51°22.587 3°0.264 18.6415 4.259528 31.570077 1.173896
2006-08-30 11:41:48 51°22.564 3°0.256 18.6376 4.260055 31.570059 1.173896
2006-08-30 11:42:49 51°22.547 3°0.252 18.6526 4.260055 31.573891 1.173896
2006-08-30 11:43:49 51°22.589 3°0.232 18.6412 4.261425 31.577564 1.241315
2006-08-30 11:44:48 51°22.637 3°0.209 18.6388 4.260582 31.577156 1.241315
2006-08-30 11:45:49 51°22.657 3°0.199 18.6357 4.260793 31.580543 1.241315
2006-08-30 11:46:49 51°22.669 3°0.185 18.6435 4.261742 31.587298 1.241315
2006-08-30 11:47:49 51°22.68 3°0.172 18.6364 4.261847 31.585979 1.275024
2006-08-30 11:48:48 51°22.686 3°0.16 18.6288 4.261425 31.588515 1.241315
2006-08-30 11:49:49 51°22.69 3°0.146 18.6278 4.261953 31.596712 1.241315
2006-08-30 11:50:49 51°22.697 3°0.13 18.624 4.26248 31.600526 1.241315
2006-08-30 11:51:49 51°22.704 3°0.115 18.6233 4.261531 31.595962 1.241315
2006-08-30 11:52:49 51°22.706 3°0.105 18.6266 4.263112 31.606309 1.241315
2006-08-30 11:53:49 51°22.722 3°0.094 18.6239 4.262691 31.606656 1.241315
2006-08-30 11:54:49 51°22.756 3°0.081 18.6228 4.263429 31.612216 1.241315
2006-08-30 11:55:49 51°22.793 3°0.045 18.6378 4.264166 31.618872 1.275024
2006-08-30 11:56:49 51°22.84 2°59.977 18.628 4.265537 31.62144 1.241315
2006-08-30 11:57:49 51°22.902 2°59.748 18.6263 4.266485 31.630938 1.308734
2006-08-30 11:58:49 51°22.993 2°59.544 18.6185 4.267645 31.64273 1.241315
2006-08-30 11:59:49 51°23.099 2°59.52 18.622 4.269016 31.659565 1.207606
2006-08-30 12:00:49 51°23.177 2°59.588 18.6212 4.271862 31.683131 1.207606
2006-08-30 12:01:49 51°23.246 2°59.651 18.6239 4.271862 31.684231 1.173896
2006-08-30 12:02:49 51°23.281 2°59.682 18.6362 4.272073 31.683778 1.140187
2006-08-30 12:03:49 51°23.283 2°59.676 18.6395 4.272811 31.683293 1.207606
2006-08-30 12:04:49 51°23.271 2°59.667 18.6795 4.275867 31.686074 1.140187
2006-08-30 12:05:49 51°23.255 2°59.657 18.6328 4.277027 31.692374 1.140187
2006-08-30 12:06:49 51°23.234 2°59.647 18.635 4.273654 31.689176 1.140187
2006-08-30 12:07:49 51°23.212 2°59.637 18.6263 4.273338 31.688206 1.140187
2006-08-30 12:08:49 51°23.188 2°59.626 18.6349 4.273021 31.687786 1.140187
2006-08-30 12:09:49 51°23.164 2°59.616 18.6323 4.273654 31.689176 1.140187
2006-08-30 12:10:49 51°23.142 2°59.607 18.6356 4.273654 31.688077 1.106477
2006-08-30 12:11:49 51°23.119 2°59.596 18.6264 4.273548 31.688852 1.140187
2006-08-30 12:12:49 51°23.096 2°59.584 18.6312 4.273021 31.686137 1.140187
2006-08-30 12:13:49 51°23.074 2°59.575 18.6278 4.273127 31.685911 1.140187
2006-08-30 12:14:49 51°23.052 2°59.567 18.6313 4.273127 31.689758 1.173896
2006-08-30 12:15:49 51°23.037 2°59.562 18.6538 4.273443 31.691277 1.173896
2006-08-30 12:16:49 51°23.064 2°59.545 18.6297 4.274075 31.687721 1.207606
2006-08-30 12:17:49 51°23.095 2°59.422 18.632 4.273021 31.688336 1.207606
2006-08-30 12:18:49 51°23.065 2°59.186 18.6305 4.273654 31.689176 1.207606
2006-08-30 12:19:49 51°22.981 2°58.952 18.6442 4.27397 31.692893 1.207606
2006-08-30 12:20:49 51°22.886 2°58.823 18.6326 4.274392 31.684296 1.241315
2006-08-30 12:21:49 51°22.829 2°58.758 18.6325 4.272705 31.681871 1.173896
2006-08-30 12:22:49 51°22.805 2°58.748 18.6374 4.271756 31.670722 1.409862
2006-08-30 12:23:49 51°22.786 2°58.743 18.6308 4.22706 31.299457 1.207606
2006-08-30 12:24:49 51°22.763 2°58.734 18.6326 4.253414 31.520592 1.207606
2006-08-30 12:25:49 51°22.738 2°58.726 18.6341 4.270386 31.659928 1.207606
2006-08-30 12:26:49 51°22.713 2°58.718 18.6446 4.270702 31.660898 1.173896
2006-08-30 12:27:49 51°22.688 2°58.709 18.6445 4.270913 31.656606 1.207606
2006-08-30 12:28:49 51°22.664 2°58.7 18.6396 4.262058 31.582248 1.241315
2006-08-30 12:29:49 51°22.64 2°58.691 18.6351 4.268277 31.638089 1.207606
2006-08-30 12:30:49 51°22.616 2°58.685 18.6401 4.268488 31.642028 1.241315
2006-08-30 12:31:49 51°22.592 2°58.678 18.641 4.262901 31.593605 1.173896
2006-08-30 12:32:49 51°22.567 2°58.669 18.6475 4.271335 31.662839 1.173896
2006-08-30 12:33:49 51°22.543 2°58.659 18.6581 4.269121 31.638486 1.173896
2006-08-30 12:34:49 51°22.482 2°58.601 18.6443 4.259844 31.555187 1.173896
2006-08-30 12:35:48 51°22.44 2°58.416 18.6412 4.258474 31.552056 1.241315
2006-08-30 12:36:49 51°22.427 2°58.156 18.6509 4.265326 31.613118 1.241315
2006-08-30 12:37:49 51°22.442 2°57.929 18.6462 4.271124 31.655058 1.241315
2006-08-30 12:38:49 51°22.453 2°57.817 18.6449 4.269226 31.639358 1.241315
2006-08-30 12:39:49 51°22.45 2°57.784 18.6486 4.271018 31.65638 1.241315
2006-08-30 12:40:49 51°22.435 2°57.776 18.6532 4.270702 31.650472 1.241315
2006-08-30 12:41:49 51°22.413 2°57.771 18.6578 4.26638 31.614167 1.207606
2006-08-30 12:42:49 51°22.388 2°57.761 18.6619 4.272072 31.655776 1.207606
2006-08-30 12:43:49 51°22.364 2°57.752 18.6709 4.27281 31.655846 1.173896
2006-08-30 12:44:49 51°22.342 2°57.744 18.6599 4.270069 31.633726 1.173896
2006-08-30 12:45:49 51°22.321 2°57.737 18.6624 4.27397 31.672571 1.173896
2006-08-30 12:46:49 51°22.302 2°57.727 18.6714 4.27534 31.680067 1.173896
2006-08-30 12:47:49 51°22.281 2°57.72 18.6713 4.275445 31.675451 1.106477
2006-08-30 12:48:49 51°22.261 2°57.712 18.6681 4.27534 31.674579 1.140187
2006-08-30 12:49:50 51°22.239 2°57.706 18.652 4.275656 31.681036 1.140187
2006-08-30 12:50:49 51°22.217 2°57.698 18.6517 4.274602 31.688238 1.140187
2006-08-30 12:51:49 51°22.194 2°57.69 18.6575 4.274708 31.684167 1.173896
2006-08-30 12:52:49 51°22.171 2°57.685 18.661 4.275235 31.682488 1.207606
2006-08-30 12:53:49 51°22.149 2°57.678 18.6709 4.27534 31.679518 1.140187
2006-08-30 12:54:49 51°22.142 2°57.678 18.6667 4.277027 31.687982 1.173896
2006-08-30 12:55:49 51°22.18 2°57.642 18.6593 4.276184 31.690887 1.241315
2006-08-30 12:56:48 51°22.175 2°57.486 18.6603 4.275551 31.686752 1.275024
2006-08-30 12:57:49 51°22.131 2°57.237 18.6459 4.275129 31.676676 1.241315
2006-08-30 12:58:49 51°22.082 2°56.983 18.6622 4.274813 31.685039 1.241315
2006-08-30 12:59:49 51°22.025 2°56.79 18.6635 4.278081 31.700546 1.241315
2006-08-30 13:00:49 51°21.99 2°56.71 18.6553 4.277765 31.69738 1.207606
2006-08-30 13:01:49 51°21.967 2°56.711 18.6456 4.275446 31.685331 1.308734
2006-08-30 13:02:49 51°21.948 2°56.721 18.6551 4.269648 31.642299 1.207606
2006-08-30 13:03:49 51°21.933 2°56.733 18.6557 4.272178 31.657745 1.207606
2006-08-30 13:04:49 51°21.921 2°56.74 18.6487 4.26522 31.601289 1.207606
2006-08-30 13:05:49 51°21.905 2°56.739 18.652 4.26385 31.593239 1.173896
2006-08-30 13:06:49 51°21.886 2°56.735 18.6512 4.271756 31.657548 1.207606
2006-08-30 13:07:49 51°21.864 2°56.73 18.6516 4.270386 31.64621 1.207606
2006-08-30 13:08:49 51°21.84 2°56.725 18.6498 4.272389 31.662781 1.207606
2006-08-30 13:09:49 51°21.816 2°56.72 18.6535 4.270069 31.64469 1.173896
2006-08-30 13:10:49 51°21.795 2°56.715 18.6444 4.272705 31.6643 1.207606
2006-08-30 13:11:49 51°21.774 2°56.711 18.6375 4.272178 31.667623 1.207606
2006-08-30 13:12:49 51°21.753 2°56.707 18.6397 4.273021 31.677897 1.241315
2006-08-30 13:13:49 51°21.733 2°56.705 18.6442 4.271229 31.661418 1.207606
2006-08-30 13:14:49 51°21.708 2°56.701 18.6452 4.272599 31.669465 1.207606
2006-08-30 13:15:49 51°21.684 2°56.697 18.6454 4.269753 31.646462 1.207606
2006-08-30 13:16:49 51°21.618 2°56.632 18.6403 4.256787 31.538653 1.207606
2006-08-30 13:17:49 51°21.589 2°56.439 18.6418 4.273021 31.676798 1.241315
2006-08-30 13:18:49 51°21.602 2°56.213 18.6451 4.273127 31.673278 1.241315
2006-08-30 13:19:49 51°21.594 2°55.981 18.6561 4.274602 31.684393 1.241315
2006-08-30 13:20:49 51°21.593 2°55.793 18.6699 4.275762 31.686849 1.207606
2006-08-30 13:21:49 51°21.576 2°55.704 18.6701 4.2765 31.683073 1.207606
2006-08-30 13:22:50 51°21.555 2°55.701 18.6638 4.276183 31.680457 1.173896
2006-08-30 13:23:49 51°21.539 2°55.711 18.6674 4.275656 31.680488 1.207606
2006-08-30 13:24:49 51°21.522 2°55.715 18.6656 4.276183 31.682652 1.173896
2006-08-30 13:25:49 51°21.504 2°55.718 18.6698 4.275867 31.682232 1.173896
2006-08-30 13:26:49 51°21.486 2°55.719 18.6686 4.276289 31.681329 1.173896
2006-08-30 13:27:49 51°21.466 2°55.717 18.6718 4.276394 31.683299 1.207606
2006-08-30 13:28:49 51°21.445 2°55.716 18.6842 4.276816 31.682396 1.173896
2006-08-30 13:29:49 51°21.425 2°55.716 18.6876 4.278291 31.685822 1.173896
2006-08-30 13:30:49 51°21.404 2°55.717 18.6825 4.278608 31.687888 1.173896
2006-08-30 13:31:49 51°21.38 2°55.714 18.6827 4.277554 31.681366 1.173896
2006-08-30 13:32:49 51°21.357 2°55.714 18.6774 4.277659 31.682238 1.207606
2006-08-30 13:33:49 51°21.334 2°55.716 18.6808 4.277132 31.680622 1.173896
2006-08-30 13:34:49 51°21.311 2°55.717 18.6801 4.277448 31.68214 1.173896
2006-08-30 13:35:49 51°21.289 2°55.72 18.6788 4.277448 31.682689 1.173896
2006-08-30 13:36:49 51°21.267 2°55.719 18.6758 4.277659 31.684432 1.173896
2006-08-30 13:37:49 51°21.244 2°55.721 18.6805 4.277554 31.684109 1.207606
2006-08-30 13:38:49 51°21.222 2°55.726 18.6768 4.277554 31.68356 1.173896
2006-08-30 13:39:49 51°21.201 2°55.731 18.6776 4.277343 31.684012 1.207606
2006-08-30 13:40:49 51°21.181 2°55.735 18.68 4.278292 31.69076 1.207606
2006-08-30 13:41:49 51°21.162 2°55.742 18.6827 4.278608 31.691181 1.207606
2006-08-30 13:42:49 51°21.142 2°55.749 18.6793 4.278502 31.689211 1.207606
2006-08-30 13:43:49 51°21.088 2°55.728 18.6735 4.278397 31.688888 1.241315
2006-08-30 13:44:49 51°21.032 2°55.643 18.6735 4.277132 31.685012 1.207606
2006-08-30 13:45:49 51°21.013 2°55.53 18.6688 4.277237 31.685335 1.241315
2006-08-30 13:46:49 51°20.999 2°55.383 18.6827 4.277238 31.688079 1.241315
2006-08-30 13:47:49 51°20.991 2°55.142 18.6715 4.277554 31.678623 1.275024
2006-08-30 13:48:49 51°20.991 2°54.887 18.6904 4.275972 31.671581 1.241315
2006-08-30 13:49:49 51°20.991 2°54.656 18.688 4.276499 31.670456 1.241315
2006-08-30 13:50:49 51°20.987 2°54.545 18.6819 4.275234 31.660545 1.241315
2006-08-30 13:51:49 51°20.977 2°54.529 18.6731 4.274075 31.65315 1.207606
2006-08-30 13:52:49 51°20.966 2°54.538 18.6737 4.27281 31.653105 1.207606
2006-08-30 13:53:49 51°20.965 2°54.531 18.7046 4.273232 31.651658 1.241315
2006-08-30 13:54:49 51°20.959 2°54.537 18.6754 4.275023 31.654965 1.207606
2006-08-30 13:55:49 51°20.945 2°54.555 18.6782 4.273232 31.653851 1.207606
2006-08-30 13:56:49 51°20.926 2°54.575 18.6782 4.273759 31.654372 1.207606
2006-08-30 13:57:49 51°20.906 2°54.586 18.6873 4.274075 31.652054 1.241315
2006-08-30 13:58:49 51°20.889 2°54.597 18.6944 4.275024 31.658802 1.207606
2006-08-30 13:59:49 51°20.872 2°54.609 18.6936 4.275551 31.657678 1.173896
2006-08-30 14:00:49 51°20.856 2°54.622 18.6951 4.275972 31.662808 1.173896
2006-08-30 14:01:49 51°20.84 2°54.636 18.6864 4.275445 31.660643 1.207606
2006-08-30 14:02:49 51°20.824 2°54.652 18.6889 4.275551 31.662063 1.241315
2006-08-30 14:03:49 51°20.81 2°54.669 18.6919 4.275551 31.659871 1.173896
2006-08-30 14:04:49 51°20.796 2°54.685 18.6967 4.275551 31.659871 1.207606
2006-08-30 14:05:49 51°20.782 2°54.704 18.6936 4.276499 31.663877 1.207606
2006-08-30 14:06:49 51°20.768 2°54.721 18.6759 4.274391 31.653024 1.207606
2006-08-30 14:07:49 51°20.755 2°54.741 18.6852 4.271756 31.640002 1.207606
2006-08-30 14:08:49 51°20.745 2°54.761 18.6747 4.273442 31.649016 1.241315
2006-08-30 14:09:49 51°20.732 2°54.782 18.6787 4.272915 31.653428 1.207606
2006-08-30 14:10:49 51°20.72 2°54.802 18.6741 4.273021 31.64827 1.241315
2006-08-30 14:11:49 51°20.745 2°54.816 18.6721 4.273232 31.652206 1.207606
2006-08-30 14:12:49 51°20.78 2°54.688 18.6834 4.27281 31.652556 1.275024
2006-08-30 14:13:49 51°20.711 2°54.439 18.6845 4.275234 31.658352 1.275024
2006-08-30 14:14:49 51°20.638 2°54.155 18.6762 4.274075 31.652054 1.241315
2006-08-30 14:15:49 51°20.567 2°53.873 18.6802 4.271861 31.637586 1.241315
2006-08-30 14:16:49 51°20.493 2°53.622 18.6825 4.272494 31.640076 1.207606
2006-08-30 14:17:49 51°20.448 2°53.491 18.69 4.272072 31.636042 1.207606
2006-08-30 14:18:49 51°20.42 2°53.427 18.7003 4.27281 31.631737 1.173896
2006-08-30 14:19:49 51°20.408 2°53.378 18.7021 4.273969 31.638035 1.173896
2006-08-30 14:20:49 51°20.398 2°53.361 18.6967 4.274496 31.641844 1.140187
2006-08-30 14:21:49 51°20.386 2°53.373 18.6992 4.274602 31.645453 1.140187
2006-08-30 14:22:49 51°20.374 2°53.396 18.6976 4.274918 31.645329 1.173896
2006-08-30 14:23:49 51°20.363 2°53.421 18.6983 4.275129 31.648167 1.173896
2006-08-30 14:24:49 51°20.352 2°53.446 18.7014 4.274918 31.645329 1.207606
2006-08-30 14:25:48 51°20.341 2°53.47 18.7037 4.275445 31.647494 1.173896
2006-08-30 14:26:49 51°20.331 2°53.497 18.6982 4.275023 31.644557 1.173896
2006-08-30 14:27:49 51°20.32 2°53.522 18.6947 4.274285 31.639006 1.173896
2006-08-30 14:28:49 51°20.311 2°53.552 18.6965 4.273969 31.640226 1.173896
2006-08-30 14:29:49 51°20.304 2°53.582 18.6938 4.273969 31.640773 1.207606
2006-08-30 14:30:50 51°20.298 2°53.613 18.6912 4.273653 31.640898 1.173896
2006-08-30 14:31:49 51°20.293 2°53.643 18.689 4.273548 31.641122 1.173896
2006-08-30 14:32:49 51°20.285 2°53.674 18.6866 4.27302 31.636765 1.173896
2006-08-30 14:33:49 51°20.277 2°53.706 18.6866 4.272915 31.637537 1.173896
2006-08-30 14:34:49 51°20.269 2°53.737 18.6841 4.272283 31.633951 1.173896
2006-08-30 14:35:49 51°20.262 2°53.767 18.6823 4.272072 31.634399 1.173896
2006-08-30 14:36:48 51°20.254 2°53.797 18.6808 4.271756 31.630142 1.173896
2006-08-30 14:37:49 51°20.247 2°53.826 18.6777 4.271756 31.63288 1.207606
2006-08-30 14:38:48 51°20.236 2°53.853 18.6779 4.271229 31.628523 1.207606
2006-08-30 14:39:49 51°20.148 2°53.809 18.67 4.270807 31.629966 1.207606
2006-08-30 14:40:49 51°19.99 2°53.683 18.6769 4.270702 31.628546 1.207606
2006-08-30 14:41:49 51°19.818 2°53.56 18.6721 4.271966 31.634623 1.207606
2006-08-30 14:42:49 51°19.644 2°53.448 18.6674 4.271756 31.63781 1.207606
2006-08-30 14:43:49 51°19.466 2°53.342 18.6741 4.271334 31.635967 1.241315
2006-08-30 14:44:49 51°19.287 2°53.233 18.6803 4.271756 31.632332 1.207606
2006-08-30 14:45:49 51°19.109 2°53.127 18.6638 4.273337 31.647049 1.207606
2006-08-30 14:46:49 51°18.93 2°53.024 18.6645 4.275867 31.678939 1.207606
2006-08-30 14:47:49 51°18.753 2°52.922 18.6645 4.281981 31.725672 1.241315
2006-08-30 14:48:49 51°18.574 2°52.834 18.6642 4.288096 31.780111 1.241315
2006-08-30 14:49:49 51°18.397 2°52.74 18.6523 4.29305 31.823323 1.207606
2006-08-30 14:50:49 51°18.22 2°52.652 18.6517 4.298638 31.876757 1.241315
2006-08-30 14:51:49 51°18.04 2°52.579 18.6916 4.275445 31.673805 1.308734
2006-08-30 14:52:49 51°17.861 2°52.505 18.6909 4.270174 31.60941 1.342443
2006-08-30 14:53:49 51°17.683 2°52.425 18.682 4.268066 31.595269 1.376153
2006-08-30 14:54:49 51°17.504 2°52.35 18.6996 4.265852 31.576975 1.477281
2006-08-30 14:55:49 51°17.326 2°52.27 18.7092 4.263533 31.546346 1.51099
2006-08-30 14:56:49 51°17.138 2°52.299 18.6964 4.266274 31.5668 1.51099
2006-08-30 14:57:49 51°16.956 2°52.411 18.6836 4.272704 31.628676 1.51099
2006-08-30 14:58:48 51°16.778 2°52.551 18.6574 4.279978 31.70471 1.477281
2006-08-30 14:59:48 51°16.603 2°52.703 18.6431 4.287885 31.785525 1.51099
2006-08-30 15:00:49 51°16.422 2°52.855 18.6521 4.295897 31.860686 1.477281
2006-08-30 15:01:48 51°16.245 2°52.991 18.6308 4.30802 31.958347 1.443571
2006-08-30 15:02:49 51°16.062 2°53.125 18.6257 4.315189 32.03052 1.443571
2006-08-30 15:03:49 51°15.885 2°53.266 18.6081 4.314767 32.023692 1.443571
2006-08-30 15:04:49 51°15.709 2°53.408 18.5825 4.305069 31.969917 1.578409
2006-08-30 15:05:49 51°15.528 2°53.548 18.5471 4.292419 31.896581 1.5447
2006-08-30 15:06:49 51°15.35 2°53.681 18.5388 4.284091 31.84021 1.645828
2006-08-30 15:07:48 51°15.171 2°53.791 18.5703 4.280823 31.810326 1.679537
2006-08-30 15:08:49 51°15.002 2°53.815 18.5903 4.290521 31.864225 1.578409
2006-08-30 15:09:48 51°14.876 2°53.831 18.8271 3.780525 27.47895 1.949212
2006-08-30 15:10:49 51°14.752 2°53.952 18.9948 1.202747 7.301179 1.005349
2006-08-30 15:11:49 51°14.63 2°54.151 19.1767 1.073276 6.472783 0.97164
2006-08-30 15:12:49 51°14.532 2°54.402 19.3559 1.032891 6.216385 0.93793
2006-08-30 15:13:49 51°14.452 2°54.704 19.5139 1.017827 6.117094 0.97164
2006-08-30 15:14:49 51°14.38 2°55.02 19.6764 1.007263 6.053659 0.93793
2006-08-30 15:15:49 51°14.267 2°55.264 19.8166 1.002138 6.026516 0.93793
2006-08-30 15:16:48 51°14.159 2°55.393 20.2781 0.999314 6.011707 0.93793
2006-08-30 15:17:49 51°14.044 2°55.478 20.1784 0.997012 5.999618 0.870512
2006-08-30 15:18:49 51°13.929 2°55.56 20.2452 0.99513 5.989295 0.93793
2006-08-30 15:19:49 51°13.816 2°55.644 20.3069 0.993561 5.979973 0.904221
2006-08-30 15:20:50 51°13.729 2°55.748 20.3692 0.992097 5.970581 0.870512
2006-08-30 15:21:51 51°13.682 2°55.849 20.4171 0.990842 5.962824 0.904221
2006-08-30 15:22:50 51°13.645 2°55.934 20.4832 0.989691 5.955372 0.870512
2006-08-30 15:23:51 51°13.619 2°56.009 20.5349 0.989273 5.952291 0.904221
2006-08-30 15:24:51 51°13.608 2°56.06 20.6016 0.988227 5.945704 0.904221